sensor_id;sensor_type;location;lat;lon;timestamp;P1;durP1;ratioP1;P2;durP2;ratioP2
76433;SDS011;65265;53.200;6.080;2023-07-20T00:04:17;3.70;;;0.73;;
76433;SDS011;65265;53.200;6.080;2023-07-20T00:09:10;1.05;;;0.47;;
76433;SDS011;65265;53.200;6.080;2023-07-20T00:14:02;1.58;;;0.55;;
76433;SDS011;65265;53.200;6.080;2023-07-20T00:18:53;0.98;;;0.30;;
76433;SDS011;65265;53.200;6.080;2023-07-20T00:23:44;1.00;;;0.40;;
76433;SDS011;65265;53.200;6.080;2023-07-20T00:28:37;1.52;;;0.68;;
76433;SDS011;65265;53.200;6.080;2023-07-20T00:33:29;1.13;;;0.40;;
76433;SDS011;65265;53.200;6.080;2023-07-20T00:38:20;1.10;;;0.40;;
76433;SDS011;65265;53.200;6.080;2023-07-20T00:43:12;1.20;;;0.70;;
76433;SDS011;65265;53.200;6.080;2023-07-20T00:48:05;1.33;;;0.73;;
76433;SDS011;65265;53.200;6.080;2023-07-20T00:52:57;1.08;;;0.30;;
76433;SDS011;65265;53.200;6.080;2023-07-20T00:57:49;1.02;;;0.35;;
76433;SDS011;65265;53.200;6.080;2023-07-20T01:02:41;0.95;;;0.73;;
76433;SDS011;65265;53.200;6.080;2023-07-20T01:07:36;1.00;;;0.30;;
76433;SDS011;65265;53.200;6.080;2023-07-20T01:12:30;0.73;;;0.32;;
76433;SDS011;65265;53.200;6.080;2023-07-20T01:17:25;0.80;;;0.50;;
76433;SDS011;65265;53.200;6.080;2023-07-20T01:22:21;0.90;;;0.60;;
76433;SDS011;65265;53.200;6.080;2023-07-20T01:33:02;2.40;;;0.52;;
76433;SDS011;65265;53.200;6.080;2023-07-20T01:37:55;0.77;;;0.43;;
76433;SDS011;65265;53.200;6.080;2023-07-20T01:47:38;1.27;;;0.40;;
76433;SDS011;65265;53.200;6.080;2023-07-20T01:52:31;0.73;;;0.30;;
76433;SDS011;65265;53.200;6.080;2023-07-20T01:57:23;1.02;;;0.50;;
76433;SDS011;65265;53.200;6.080;2023-07-20T02:02:14;1.02;;;0.43;;
76433;SDS011;65265;53.200;6.080;2023-07-20T02:07:06;0.50;;;0.28;;
76433;SDS011;65265;53.200;6.080;2023-07-20T02:11:59;1.23;;;0.55;;
76433;SDS011;65265;53.200;6.080;2023-07-20T02:16:50;0.70;;;0.30;;
76433;SDS011;65265;53.200;6.080;2023-07-20T02:21:44;2.65;;;0.95;;
76433;SDS011;65265;53.200;6.080;2023-07-20T02:26:35;1.23;;;0.60;;
76433;SDS011;65265;53.200;6.080;2023-07-20T02:31:28;1.00;;;0.40;;
76433;SDS011;65265;53.200;6.080;2023-07-20T02:36:19;0.98;;;0.75;;
76433;SDS011;65265;53.200;6.080;2023-07-20T02:41:11;0.90;;;0.80;;
76433;SDS011;65265;53.200;6.080;2023-07-20T02:46:04;0.98;;;0.38;;
76433;SDS011;65265;53.200;6.080;2023-07-20T02:50:57;0.50;;;0.17;;
76433;SDS011;65265;53.200;6.080;2023-07-20T02:55:48;0.70;;;0.40;;
76433;SDS011;65265;53.200;6.080;2023-07-20T03:00:39;1.00;;;0.32;;
76433;SDS011;65265;53.200;6.080;2023-07-20T03:05:33;0.50;;;0.20;;
76433;SDS011;65265;53.200;6.080;2023-07-20T03:10:27;0.40;;;0.28;;
76433;SDS011;65265;53.200;6.080;2023-07-20T03:15:19;0.50;;;0.10;;
76433;SDS011;65265;53.200;6.080;2023-07-20T03:20:10;1.75;;;0.20;;
76433;SDS011;65265;53.200;6.080;2023-07-20T03:25:03;0.65;;;0.10;;
76433;SDS011;65265;53.200;6.080;2023-07-20T03:29:56;0.98;;;0.60;;
76433;SDS011;65265;53.200;6.080;2023-07-20T03:34:47;1.02;;;0.28;;
76433;SDS011;65265;53.200;6.080;2023-07-20T03:39:39;0.85;;;0.30;;
76433;SDS011;65265;53.200;6.080;2023-07-20T03:44:30;0.90;;;0.30;;
76433;SDS011;65265;53.200;6.080;2023-07-20T03:49:23;0.43;;;0.08;;
76433;SDS011;65265;53.200;6.080;2023-07-20T03:54:15;0.40;;;0.17;;
76433;SDS011;65265;53.200;6.080;2023-07-20T03:59:06;1.00;;;0.28;;
76433;SDS011;65265;53.200;6.080;2023-07-20T04:03:57;0.75;;;0.50;;
76433;SDS011;65265;53.200;6.080;2023-07-20T04:08:50;1.95;;;0.93;;
76433;SDS011;65265;53.200;6.080;2023-07-20T04:18:33;0.80;;;0.35;;
76433;SDS011;65265;53.200;6.080;2023-07-20T04:23:24;1.05;;;0.20;;
76433;SDS011;65265;53.200;6.080;2023-07-20T04:28:17;1.25;;;0.60;;
76433;SDS011;65265;53.200;6.080;2023-07-20T04:33:08;3.17;;;0.60;;
76433;SDS011;65265;53.200;6.080;2023-07-20T04:38:00;0.85;;;0.43;;
76433;SDS011;65265;53.200;6.080;2023-07-20T04:42:51;2.10;;;0.80;;
76433;SDS011;65265;53.200;6.080;2023-07-20T04:47:44;0.80;;;0.52;;
76433;SDS011;65265;53.200;6.080;2023-07-20T04:52:35;2.65;;;0.88;;
76433;SDS011;65265;53.200;6.080;2023-07-20T04:57:27;0.95;;;0.32;;
76433;SDS011;65265;53.200;6.080;2023-07-20T05:02:18;1.20;;;0.40;;
76433;SDS011;65265;53.200;6.080;2023-07-20T05:07:12;1.92;;;0.80;;
76433;SDS011;65265;53.200;6.080;2023-07-20T05:12:04;1.15;;;0.77;;
76433;SDS011;65265;53.200;6.080;2023-07-20T05:16:55;1.98;;;0.82;;
76433;SDS011;65265;53.200;6.080;2023-07-20T05:21:47;2.83;;;0.98;;
76433;SDS011;65265;53.200;6.080;2023-07-20T05:26:40;2.22;;;0.93;;
76433;SDS011;65265;53.200;6.080;2023-07-20T05:31:31;2.97;;;1.17;;
76433;SDS011;65265;53.200;6.080;2023-07-20T05:36:23;2.40;;;1.33;;
76433;SDS011;65265;53.200;6.080;2023-07-20T05:41:15;2.72;;;1.52;;
76433;SDS011;65265;53.200;6.080;2023-07-20T05:46:08;3.03;;;0.70;;
76433;SDS011;65265;53.200;6.080;2023-07-20T05:51:00;1.38;;;0.73;;
76433;SDS011;65265;53.200;6.080;2023-07-20T05:55:51;1.83;;;0.68;;
76433;SDS011;65265;53.200;6.080;2023-07-20T06:00:43;1.00;;;0.30;;
76433;SDS011;65265;53.200;6.080;2023-07-20T06:05:36;0.63;;;0.45;;
76433;SDS011;65265;53.200;6.080;2023-07-20T06:10:28;1.10;;;0.38;;
76433;SDS011;65265;53.200;6.080;2023-07-20T06:15:26;2.05;;;0.68;;
76433;SDS011;65265;53.200;6.080;2023-07-20T06:20:19;1.90;;;0.43;;
76433;SDS011;65265;53.200;6.080;2023-07-20T06:25:12;1.02;;;0.40;;
76433;SDS011;65265;53.200;6.080;2023-07-20T06:30:04;1.42;;;0.30;;
76433;SDS011;65265;53.200;6.080;2023-07-20T06:39:47;1.35;;;0.32;;
76433;SDS011;65265;53.200;6.080;2023-07-20T06:44:40;2.40;;;0.35;;
76433;SDS011;65265;53.200;6.080;2023-07-20T06:49:32;5.88;;;0.60;;
76433;SDS011;65265;53.200;6.080;2023-07-20T06:54:23;3.75;;;0.70;;
76433;SDS011;65265;53.200;6.080;2023-07-20T06:59:15;5.05;;;0.77;;
76433;SDS011;65265;53.200;6.080;2023-07-20T07:04:08;2.75;;;0.70;;
76433;SDS011;65265;53.200;6.080;2023-07-20T07:09:00;3.63;;;0.82;;
76433;SDS011;65265;53.200;6.080;2023-07-20T07:13:51;3.08;;;0.88;;
76433;SDS011;65265;53.200;6.080;2023-07-20T07:18:43;2.30;;;0.80;;
76433;SDS011;65265;53.200;6.080;2023-07-20T07:23:37;6.90;;;1.02;;
76433;SDS011;65265;53.200;6.080;2023-07-20T07:28:29;1.67;;;0.80;;
76433;SDS011;65265;53.200;6.080;2023-07-20T07:33:21;4.00;;;0.80;;
76433;SDS011;65265;53.200;6.080;2023-07-20T07:38:13;2.83;;;1.00;;
76433;SDS011;65265;53.200;6.080;2023-07-20T07:43:06;1.73;;;0.20;;
76433;SDS011;65265;53.200;6.080;2023-07-20T07:47:58;4.95;;;0.75;;
76433;SDS011;65265;53.200;6.080;2023-07-20T07:52:50;2.45;;;0.52;;
76433;SDS011;65265;53.200;6.080;2023-07-20T07:57:41;2.53;;;0.43;;
76433;SDS011;65265;53.200;6.080;2023-07-20T08:02:34;2.05;;;0.40;;
76433;SDS011;65265;53.200;6.080;2023-07-20T08:07:26;4.05;;;1.00;;
76433;SDS011;65265;53.200;6.080;2023-07-20T08:17:10;3.67;;;0.20;;
76433;SDS011;65265;53.200;6.080;2023-07-20T08:22:03;2.83;;;0.32;;
76433;SDS011;65265;53.200;6.080;2023-07-20T08:26:55;3.15;;;0.30;;
76433;SDS011;65265;53.200;6.080;2023-07-20T08:31:46;2.38;;;0.15;;
76433;SDS011;65265;53.200;6.080;2023-07-20T08:41:31;3.63;;;0.00;;
76433;SDS011;65265;53.200;6.080;2023-07-20T08:46:24;5.07;;;0.40;;
76433;SDS011;65265;53.200;6.080;2023-07-20T08:51:17;2.88;;;0.10;;
76433;SDS011;65265;53.200;6.080;2023-07-20T08:56:10;1.73;;;0.45;;
76433;SDS011;65265;53.200;6.080;2023-07-20T09:01:05;1.60;;;0.10;;
76433;SDS011;65265;53.200;6.080;2023-07-20T09:05:58;3.92;;;0.43;;
76433;SDS011;65265;53.200;6.080;2023-07-20T09:10:49;2.22;;;0.13;;
76433;SDS011;65265;53.200;6.080;2023-07-20T09:15:45;1.60;;;0.10;;
76433;SDS011;65265;53.200;6.080;2023-07-20T09:20:38;1.45;;;0.10;;
76433;SDS011;65265;53.200;6.080;2023-07-20T09:25:30;1.00;;;0.30;;
76433;SDS011;65265;53.200;6.080;2023-07-20T09:30:24;1.45;;;0.45;;
76433;SDS011;65265;53.200;6.080;2023-07-20T09:35:16;1.02;;;0.20;;
76433;SDS011;65265;53.200;6.080;2023-07-20T09:40:11;4.25;;;1.05;;
76433;SDS011;65265;53.200;6.080;2023-07-20T09:45:06;1.42;;;0.22;;
76433;SDS011;65265;53.200;6.080;2023-07-20T09:49:58;2.90;;;0.35;;
76433;SDS011;65265;53.200;6.080;2023-07-20T09:54:50;1.02;;;0.10;;
76433;SDS011;65265;53.200;6.080;2023-07-20T10:04:35;0.73;;;0.20;;
76433;SDS011;65265;53.200;6.080;2023-07-20T10:09:27;1.20;;;0.13;;
76433;SDS011;65265;53.200;6.080;2023-07-20T10:14:20;1.50;;;0.57;;
76433;SDS011;65265;53.200;6.080;2023-07-20T10:19:13;2.00;;;0.10;;
76433;SDS011;65265;53.200;6.080;2023-07-20T10:24:15;2.13;;;0.32;;
76433;SDS011;65265;53.200;6.080;2023-07-20T10:29:08;4.28;;;0.57;;
76433;SDS011;65265;53.200;6.080;2023-07-20T10:34:00;1.60;;;0.32;;
76433;SDS011;65265;53.200;6.080;2023-07-20T10:38:54;2.25;;;0.25;;
76433;SDS011;65265;53.200;6.080;2023-07-20T10:43:47;3.03;;;0.25;;
76433;SDS011;65265;53.200;6.080;2023-07-20T10:48:58;2.60;;;0.20;;
76433;SDS011;65265;53.200;6.080;2023-07-20T10:53:51;1.63;;;0.10;;
76433;SDS011;65265;53.200;6.080;2023-07-20T10:58:46;1.42;;;0.10;;
76433;SDS011;65265;53.200;6.080;2023-07-20T11:03:38;2.10;;;0.30;;
76433;SDS011;65265;53.200;6.080;2023-07-20T11:08:40;2.08;;;0.20;;
76433;SDS011;65265;53.200;6.080;2023-07-20T11:13:35;1.73;;;0.35;;
76433;SDS011;65265;53.200;6.080;2023-07-20T11:23:19;3.08;;;0.40;;
76433;SDS011;65265;53.200;6.080;2023-07-20T11:28:11;2.15;;;0.20;;
76433;SDS011;65265;53.200;6.080;2023-07-20T11:37:58;1.20;;;0.17;;
76433;SDS011;65265;53.200;6.080;2023-07-20T11:42:49;1.42;;;0.40;;
76433;SDS011;65265;53.200;6.080;2023-07-20T11:47:42;3.10;;;0.82;;
76433;SDS011;65265;53.200;6.080;2023-07-20T11:52:33;4.15;;;0.30;;
76433;SDS011;65265;53.200;6.080;2023-07-20T11:57:27;3.33;;;0.20;;
76433;SDS011;65265;53.200;6.080;2023-07-20T12:02:19;0.98;;;0.30;;
76433;SDS011;65265;53.200;6.080;2023-07-20T12:07:10;1.85;;;0.45;;
76433;SDS011;65265;53.200;6.080;2023-07-20T12:12:08;2.10;;;0.20;;
76433;SDS011;65265;53.200;6.080;2023-07-20T12:17:03;0.90;;;0.25;;
76433;SDS011;65265;53.200;6.080;2023-07-20T12:21:57;1.65;;;0.52;;
76433;SDS011;65265;53.200;6.080;2023-07-20T12:26:55;2.20;;;0.47;;
76433;SDS011;65265;53.200;6.080;2023-07-20T12:31:47;2.72;;;0.80;;
76433;SDS011;65265;53.200;6.080;2023-07-20T12:36:40;1.50;;;0.40;;
76433;SDS011;65265;53.200;6.080;2023-07-20T12:41:31;2.92;;;0.73;;
76433;SDS011;65265;53.200;6.080;2023-07-20T12:46:23;1.90;;;0.65;;
76433;SDS011;65265;53.200;6.080;2023-07-20T12:51:15;3.30;;;0.50;;
76433;SDS011;65265;53.200;6.080;2023-07-20T13:00:59;1.65;;;0.38;;
76433;SDS011;65265;53.200;6.080;2023-07-20T13:05:51;2.30;;;0.60;;
76433;SDS011;65265;53.200;6.080;2023-07-20T13:10:43;4.25;;;0.50;;
76433;SDS011;65265;53.200;6.080;2023-07-20T13:15:42;3.83;;;0.73;;
76433;SDS011;65265;53.200;6.080;2023-07-20T13:20:36;3.65;;;0.32;;
76433;SDS011;65265;53.200;6.080;2023-07-20T13:30:19;1.65;;;0.52;;
76433;SDS011;65265;53.200;6.080;2023-07-20T13:35:13;1.60;;;0.25;;
76433;SDS011;65265;53.200;6.080;2023-07-20T13:40:05;0.90;;;0.35;;
76433;SDS011;65265;53.200;6.080;2023-07-20T13:44:58;1.60;;;0.20;;
76433;SDS011;65265;53.200;6.080;2023-07-20T13:49:50;2.28;;;0.40;;
76433;SDS011;65265;53.200;6.080;2023-07-20T13:59:34;1.10;;;0.10;;
76433;SDS011;65265;53.200;6.080;2023-07-20T14:04:25;0.70;;;0.32;;
76433;SDS011;65265;53.200;6.080;2023-07-20T14:09:17;1.35;;;0.30;;
76433;SDS011;65265;53.200;6.080;2023-07-20T14:14:10;0.80;;;0.13;;
76433;SDS011;65265;53.200;6.080;2023-07-20T14:19:01;1.40;;;0.20;;
76433;SDS011;65265;53.200;6.080;2023-07-20T14:23:54;0.93;;;0.22;;
76433;SDS011;65265;53.200;6.080;2023-07-20T14:33:39;1.60;;;0.10;;
76433;SDS011;65265;53.200;6.080;2023-07-20T14:38:34;1.45;;;0.43;;
76433;SDS011;65265;53.200;6.080;2023-07-20T14:43:26;2.03;;;0.13;;
76433;SDS011;65265;53.200;6.080;2023-07-20T14:48:17;2.58;;;0.15;;
76433;SDS011;65265;53.200;6.080;2023-07-20T14:53:10;1.67;;;0.15;;
76433;SDS011;65265;53.200;6.080;2023-07-20T14:58:02;3.00;;;0.22;;
76433;SDS011;65265;53.200;6.080;2023-07-20T15:02:53;1.45;;;0.45;;
76433;SDS011;65265;53.200;6.080;2023-07-20T15:07:45;1.15;;;0.15;;
76433;SDS011;65265;53.200;6.080;2023-07-20T15:12:38;0.93;;;0.10;;
76433;SDS011;65265;53.200;6.080;2023-07-20T15:17:30;1.23;;;0.13;;
76433;SDS011;65265;53.200;6.080;2023-07-20T15:22:21;1.25;;;0.25;;
76433;SDS011;65265;53.200;6.080;2023-07-20T15:32:07;1.15;;;0.22;;
76433;SDS011;65265;53.200;6.080;2023-07-20T15:36:59;0.70;;;0.10;;
76433;SDS011;65265;53.200;6.080;2023-07-20T15:46:45;0.95;;;0.20;;
76433;SDS011;65265;53.200;6.080;2023-07-20T15:51:40;1.00;;;0.10;;
76433;SDS011;65265;53.200;6.080;2023-07-20T15:56:33;4.35;;;0.40;;
76433;SDS011;65265;53.200;6.080;2023-07-20T16:01:24;2.03;;;0.63;;
76433;SDS011;65265;53.200;6.080;2023-07-20T16:11:08;1.17;;;0.22;;
76433;SDS011;65265;53.200;6.080;2023-07-20T16:16:00;1.98;;;0.60;;
76433;SDS011;65265;53.200;6.080;2023-07-20T16:20:54;0.95;;;0.25;;
76433;SDS011;65265;53.200;6.080;2023-07-20T16:25:46;0.80;;;0.30;;
76433;SDS011;65265;53.200;6.080;2023-07-20T16:35:30;1.40;;;0.20;;
76433;SDS011;65265;53.200;6.080;2023-07-20T16:40:21;2.63;;;0.40;;
76433;SDS011;65265;53.200;6.080;2023-07-20T16:45:14;1.30;;;0.20;;
76433;SDS011;65265;53.200;6.080;2023-07-20T16:50:07;1.27;;;0.40;;
76433;SDS011;65265;53.200;6.080;2023-07-20T16:54:59;1.55;;;0.20;;
76433;SDS011;65265;53.200;6.080;2023-07-20T16:59:51;0.88;;;0.22;;
76433;SDS011;65265;53.200;6.080;2023-07-20T17:04:43;1.85;;;0.13;;
76433;SDS011;65265;53.200;6.080;2023-07-20T17:09:39;1.35;;;0.10;;
76433;SDS011;65265;53.200;6.080;2023-07-20T17:14:31;2.10;;;0.32;;
76433;SDS011;65265;53.200;6.080;2023-07-20T17:19:24;1.27;;;0.40;;
76433;SDS011;65265;53.200;6.080;2023-07-20T17:24:15;0.57;;;0.10;;
76433;SDS011;65265;53.200;6.080;2023-07-20T17:29:08;0.98;;;0.10;;
76433;SDS011;65265;53.200;6.080;2023-07-20T17:34:00;1.55;;;0.20;;
76433;SDS011;65265;53.200;6.080;2023-07-20T17:38:52;1.63;;;0.00;;
76433;SDS011;65265;53.200;6.080;2023-07-20T17:43:44;0.93;;;0.25;;
76433;SDS011;65265;53.200;6.080;2023-07-20T17:53:28;1.42;;;0.47;;
76433;SDS011;65265;53.200;6.080;2023-07-20T17:58:20;1.65;;;0.25;;
76433;SDS011;65265;53.200;6.080;2023-07-20T18:03:12;2.00;;;0.10;;
76433;SDS011;65265;53.200;6.080;2023-07-20T18:08:05;3.15;;;0.10;;
76433;SDS011;65265;53.200;6.080;2023-07-20T18:12:58;0.68;;;0.10;;
76433;SDS011;65265;53.200;6.080;2023-07-20T18:22:41;0.75;;;0.10;;
76433;SDS011;65265;53.200;6.080;2023-07-20T18:27:34;1.25;;;0.13;;
76433;SDS011;65265;53.200;6.080;2023-07-20T18:32:27;1.10;;;0.08;;
76433;SDS011;65265;53.200;6.080;2023-07-20T18:37:18;0.55;;;0.25;;
76433;SDS011;65265;53.200;6.080;2023-07-20T18:42:10;1.17;;;0.30;;
76433;SDS011;65265;53.200;6.080;2023-07-20T18:47:03;2.28;;;0.52;;
76433;SDS011;65265;53.200;6.080;2023-07-20T18:51:55;2.03;;;0.65;;
76433;SDS011;65265;53.200;6.080;2023-07-20T18:56:47;1.02;;;0.55;;
76433;SDS011;65265;53.200;6.080;2023-07-20T19:01:38;1.55;;;0.40;;
76433;SDS011;65265;53.200;6.080;2023-07-20T19:06:31;1.77;;;0.45;;
76433;SDS011;65265;53.200;6.080;2023-07-20T19:11:23;1.83;;;0.30;;
76433;SDS011;65265;53.200;6.080;2023-07-20T19:16:14;3.75;;;1.45;;
76433;SDS011;65265;53.200;6.080;2023-07-20T19:21:06;3.45;;;1.02;;
76433;SDS011;65265;53.200;6.080;2023-07-20T19:26:02;1.85;;;0.65;;
76433;SDS011;65265;53.200;6.080;2023-07-20T19:30:56;2.25;;;0.80;;
76433;SDS011;65265;53.200;6.080;2023-07-20T19:35:47;3.25;;;0.93;;
76433;SDS011;65265;53.200;6.080;2023-07-20T19:40:39;2.40;;;0.85;;
76433;SDS011;65265;53.200;6.080;2023-07-20T19:45:32;1.80;;;0.60;;
76433;SDS011;65265;53.200;6.080;2023-07-20T19:50:23;1.83;;;0.82;;
76433;SDS011;65265;53.200;6.080;2023-07-20T19:55:15;3.10;;;0.63;;
76433;SDS011;65265;53.200;6.080;2023-07-20T20:00:07;2.72;;;0.93;;
76433;SDS011;65265;53.200;6.080;2023-07-20T20:05:03;3.03;;;1.02;;
76433;SDS011;65265;53.200;6.080;2023-07-20T20:09:56;2.28;;;0.80;;
76433;SDS011;65265;53.200;6.080;2023-07-20T20:14:48;2.22;;;0.60;;
76433;SDS011;65265;53.200;6.080;2023-07-20T20:19:39;2.47;;;0.93;;
76433;SDS011;65265;53.200;6.080;2023-07-20T20:24:32;4.03;;;1.10;;
76433;SDS011;65265;53.200;6.080;2023-07-20T20:29:24;4.90;;;0.82;;
76433;SDS011;65265;53.200;6.080;2023-07-20T20:34:15;3.05;;;0.90;;
76433;SDS011;65265;53.200;6.080;2023-07-20T20:39:06;3.35;;;1.10;;
76433;SDS011;65265;53.200;6.080;2023-07-20T20:43:59;2.28;;;0.52;;
76433;SDS011;65265;53.200;6.080;2023-07-20T20:48:51;2.35;;;0.73;;
76433;SDS011;65265;53.200;6.080;2023-07-20T20:53:42;2.33;;;0.90;;
76433;SDS011;65265;53.200;6.080;2023-07-20T20:58:34;2.45;;;0.73;;
76433;SDS011;65265;53.200;6.080;2023-07-20T21:03:27;1.83;;;0.73;;
76433;SDS011;65265;53.200;6.080;2023-07-20T21:08:19;2.00;;;0.70;;
76433;SDS011;65265;53.200;6.080;2023-07-20T21:13:10;3.28;;;0.70;;
76433;SDS011;65265;53.200;6.080;2023-07-20T21:18:02;1.67;;;0.60;;
76433;SDS011;65265;53.200;6.080;2023-07-20T21:22:55;3.38;;;1.45;;
76433;SDS011;65265;53.200;6.080;2023-07-20T21:27:46;2.45;;;1.13;;
76433;SDS011;65265;53.200;6.080;2023-07-20T21:32:38;2.88;;;0.98;;
76433;SDS011;65265;53.200;6.080;2023-07-20T21:37:29;4.28;;;1.58;;
76433;SDS011;65265;53.200;6.080;2023-07-20T21:42:22;3.20;;;1.42;;
76433;SDS011;65265;53.200;6.080;2023-07-20T21:47:14;4.25;;;1.83;;
76433;SDS011;65265;53.200;6.080;2023-07-20T21:52:06;2.97;;;1.25;;
76433;SDS011;65265;53.200;6.080;2023-07-20T21:56:58;3.20;;;1.77;;
76433;SDS011;65265;53.200;6.080;2023-07-20T22:01:50;2.75;;;1.38;;
76433;SDS011;65265;53.200;6.080;2023-07-20T22:06:42;4.45;;;1.98;;
76433;SDS011;65265;53.200;6.080;2023-07-20T22:11:36;5.85;;;1.60;;
76433;SDS011;65265;53.200;6.080;2023-07-20T22:16:29;3.50;;;1.83;;
76433;SDS011;65265;53.200;6.080;2023-07-20T22:21:23;5.72;;;1.88;;
76433;SDS011;65265;53.200;6.080;2023-07-20T22:26:14;2.90;;;1.52;;
76433;SDS011;65265;53.200;6.080;2023-07-20T22:35:58;3.03;;;1.80;;
76433;SDS011;65265;53.200;6.080;2023-07-20T22:40:51;2.22;;;0.82;;
76433;SDS011;65265;53.200;6.080;2023-07-20T22:45:43;3.33;;;1.52;;
76433;SDS011;65265;53.200;6.080;2023-07-20T22:50:34;3.42;;;1.63;;
76433;SDS011;65265;53.200;6.080;2023-07-20T22:55:26;3.40;;;1.48;;
76433;SDS011;65265;53.200;6.080;2023-07-20T23:00:19;2.22;;;1.00;;
76433;SDS011;65265;53.200;6.080;2023-07-20T23:05:16;4.60;;;1.48;;
76433;SDS011;65265;53.200;6.080;2023-07-20T23:10:08;3.17;;;1.40;;
76433;SDS011;65265;53.200;6.080;2023-07-20T23:15:00;2.83;;;1.42;;
76433;SDS011;65265;53.200;6.080;2023-07-20T23:19:53;4.80;;;1.30;;
76433;SDS011;65265;53.200;6.080;2023-07-20T23:24:44;2.35;;;1.38;;
76433;SDS011;65265;53.200;6.080;2023-07-20T23:29:36;3.92;;;2.00;;
76433;SDS011;65265;53.200;6.080;2023-07-20T23:34:27;3.95;;;1.63;;
76433;SDS011;65265;53.200;6.080;2023-07-20T23:39:20;4.43;;;1.73;;
76433;SDS011;65265;53.200;6.080;2023-07-20T23:44:13;4.22;;;2.10;;
76433;SDS011;65265;53.200;6.080;2023-07-20T23:49:04;5.03;;;2.38;;
76433;SDS011;65265;53.200;6.080;2023-07-20T23:53:57;4.40;;;2.13;;
76433;SDS011;65265;53.200;6.080;2023-07-20T23:58:49;3.40;;;1.70;;
